Aeroporto :
LOGIN :

Iscrizione | Disclaimer

   EN    FR    IT 

 










Sommario :    VFR   VFR Marginale   IFR   IFR Intensivo   IFR Molto Intensivo
Visibilità : 
Base nubi : 
>= 8 km
>= 3000ft
5 / 8 km
1000 / 3000 ft
1500m / 5 km
500 / 1000 ft
800 / 1500m
200 / 500 ft
< 800m
< 200 ft
Simboli :   Temporali  Nebbia  Neve Forte  Precipitazioni Forti  Vento > 20 kt
SIGMETs :   Varie  Temporali  Ghiacco  Turbolenza  Onda orograficha  Ceneri Vulcaniche






- Altitudine del aeroporto : 101 ft
- Codice IATA : GLO


EGBJ - Gloucestershire

ULTIMO METAR :
  • 060950Z 22012KT 9999 SCT009 BKN016 12/11 Q1003

METARs OBSOLETI :
  • 060920Z 23012KT 190V250 9999 SCT008 BKN012 12/11 Q1003
  • 060850Z 22014KT 9999 SCT007 BKN009 12/11 Q1003
  • 060820Z 23017KT 9999 SCT007 BKN011 12/11 Q1003
  • 060750Z 23017G27KT 9000 -RA FEW006 BKN009 12/11 Q1003

TAF AMD TAF EGBJ
Valido dal 06 a 09 ore il 06 a 18 ore UTC


060934Z 0609/0618 22013KT 9999 BKN012
TEMPO 0609/0614 23016G26KT
TEMPO 0609/0610 3000 RADZ BKN005
BECMG 0610/0612 SCT025
TEMPO 0614/0617 26016G26KT 7000 SHRA
PROB30
TEMPO 0614/0617 4000 +SHRA BKN014



MetMap, La meteo Aeronautica in un colpo d'occhio ! - Copyright ORBIFLY Dicembre 2007 - Disclaimer

ORBIFLY MET'MAP TEAM :

Programmazione e sviluppo : Alexandra Zaïnal
Concezione : Baudouin d'Aumeries
Aiuto per la programmazione : Marc-Olivier Méhu
Supporto tecnico e logistico : Manuel Goepfert
Aiuto per la traduzione : Arnaldo La Scala

Contatto : metmap@orbifly.com




FONTI E CREDITI :

   NOAA